Time;durP1;ratioP1;P1;durP2;ratioP2;P2;SDS_P1;SDS_P2;PMS_P1;PMS_P2;Temp;Humidity;BMP_temperature;BMP_pressure;BME280_temperature;BME280_humidity;BME280_pressure;Samples;Min_cycle;Max_cycle;Signal;HPM_P1;HPM_P2
2023/12/02 00:00:04;;;;;;;35.58;20.90;;;-0.50;99.90;;;;;;2093458;28;20013;-79
2023/12/02 00:01:12;;;;;;;36.65;21.50;;;-0.50;99.90;;;;;;2093841;28;20681;-78
2023/12/02 00:02:13;;;;;;;36.97;21.15;;;-0.50;99.90;;;;;;2093960;28;20060;-79
2023/12/02 00:03:13;;;;;;;37.40;21.60;;;-0.50;99.90;;;;;;2095495;28;20042;-79
2023/12/02 00:04:14;;;;;;;37.00;20.50;;;-0.50;99.90;;;;;;2093014;28;20020;-79
2023/12/02 00:05:14;;;;;;;35.92;21.17;;;-0.60;99.90;;;;;;2095379;28;20038;-77
2023/12/02 00:06:15;;;;;;;36.35;20.50;;;-0.70;99.90;;;;;;2092760;28;20057;-78
2023/12/02 00:07:15;;;;;;;39.45;21.83;;;-0.70;99.90;;;;;;2094748;28;20028;-77
2023/12/02 00:08:16;;;;;;;37.80;21.98;;;-0.80;99.90;;;;;;2097215;28;20036;-80
2023/12/02 00:09:17;;;;;;;41.15;22.70;;;-0.80;99.90;;;;;;2093954;28;20020;-77
2023/12/02 00:10:18;;;;;;;38.45;22.65;;;-0.80;99.90;;;;;;2093187;28;20039;-78
2023/12/02 00:11:18;;;;;;;39.67;22.13;;;-0.80;99.90;;;;;;2097689;28;20036;-78
2023/12/02 00:12:19;;;;;;;37.00;21.70;;;-0.80;99.90;;;;;;2092707;28;20036;-77
2023/12/02 00:13:20;;;;;;;35.03;20.65;;;-0.70;99.90;;;;;;2092680;28;20032;-77
2023/12/02 00:14:20;;;;;;;39.40;22.23;;;-0.70;99.90;;;;;;2092037;28;20064;-78
2023/12/02 00:15:21;;;;;;;41.85;23.13;;;-0.80;99.90;;;;;;2094251;28;20035;-78
2023/12/02 00:16:21;;;;;;;38.75;22.02;;;-0.70;99.90;;;;;;2091627;28;20385;-79
2023/12/02 00:17:22;;;;;;;38.78;22.35;;;-0.70;99.90;;;;;;2098233;28;20036;-79
2023/12/02 00:18:22;;;;;;;38.38;22.83;;;-0.70;99.90;;;;;;2094375;28;20057;-79
2023/12/02 00:19:23;;;;;;;38.28;21.10;;;-0.70;99.90;;;;;;2087188;28;20036;-79
2023/12/02 00:20:23;;;;;;;36.33;20.02;;;-0.70;99.90;;;;;;2091674;28;20036;-79
2023/12/02 00:21:24;;;;;;;36.95;20.83;;;-0.70;99.90;;;;;;2088588;28;20094;-79
2023/12/02 00:22:24;;;;;;;39.03;21.83;;;-0.70;99.90;;;;;;2084872;28;20025;-77
2023/12/02 00:23:25;;;;;;;40.10;21.63;;;-0.70;99.90;;;;;;2095812;28;20028;-78
2023/12/02 00:24:25;;;;;;;36.15;21.38;;;-0.70;99.90;;;;;;2092866;28;20522;-78
2023/12/02 00:25:26;;;;;;;36.28;20.88;;;-0.70;99.90;;;;;;2094783;28;20274;-79
2023/12/02 00:26:27;;;;;;;37.03;20.88;;;-0.80;99.90;;;;;;2086358;28;20041;-78
2023/12/02 00:27:30;;;;;;;38.72;21.77;;;-0.80;99.90;;;;;;2084865;28;20044;-79
2023/12/02 00:28:31;;;;;;;35.17;20.20;;;-0.80;99.90;;;;;;2087953;28;20045;-78
2023/12/02 00:29:32;;;;;;;37.00;21.45;;;-0.80;99.90;;;;;;2089806;28;20033;-78
2023/12/02 00:30:32;;;;;;;37.45;21.83;;;-0.80;99.90;;;;;;2090563;28;20071;-78
2023/12/02 00:31:33;;;;;;;41.13;22.85;;;-0.80;99.90;;;;;;2082677;28;20836;-79
2023/12/02 00:32:33;;;;;;;37.47;21.25;;;-0.80;99.90;;;;;;2078170;28;20029;-79
2023/12/02 00:33:34;;;;;;;35.53;20.73;;;-0.80;99.90;;;;;;2092400;28;20036;-78
2023/12/02 00:34:34;;;;;;;38.95;22.52;;;-0.80;99.90;;;;;;2084717;28;20031;-78
2023/12/02 00:35:35;;;;;;;36.75;21.42;;;-0.80;99.90;;;;;;2082332;28;20024;-78
2023/12/02 00:36:36;;;;;;;35.28;20.25;;;-0.80;99.90;;;;;;2091400;28;20059;-78
2023/12/02 00:37:36;;;;;;;37.42;21.67;;;-0.80;99.90;;;;;;2084473;28;20025;-79
2023/12/02 00:38:37;;;;;;;37.47;21.08;;;-0.70;99.90;;;;;;2091790;28;20112;-78
2023/12/02 00:39:37;;;;;;;38.83;22.27;;;-0.70;99.90;;;;;;2091303;28;20036;-78
2023/12/02 00:40:38;;;;;;;36.10;20.98;;;-0.80;99.90;;;;;;2089136;28;20036;-79
2023/12/02 00:41:38;;;;;;;38.55;21.02;;;-0.90;99.90;;;;;;2092193;28;20033;-76
2023/12/02 00:42:39;;;;;;;36.70;21.75;;;-0.90;99.90;;;;;;2094590;28;20020;-77
2023/12/02 00:43:40;;;;;;;44.33;22.73;;;-0.90;99.90;;;;;;2091647;28;20027;-77
2023/12/02 00:44:40;;;;;;;40.95;23.15;;;-1.00;99.90;;;;;;2091756;28;20028;-77
2023/12/02 00:45:41;;;;;;;40.90;22.20;;;-1.00;99.90;;;;;;2086944;28;20104;-79
2023/12/02 00:46:42;;;;;;;39.63;23.13;;;-1.00;99.90;;;;;;2092412;28;20029;-79
2023/12/02 00:47:42;;;;;;;40.20;22.17;;;-0.90;99.90;;;;;;2087880;28;20012;-79
2023/12/02 00:48:43;;;;;;;38.53;22.75;;;-0.90;99.90;;;;;;2087965;28;20550;-79
2023/12/02 00:49:43;;;;;;;43.00;22.10;;;-0.90;99.90;;;;;;2083104;28;20495;-78
2023/12/02 00:50:44;;;;;;;40.00;22.70;;;-0.90;99.90;;;;;;2083312;28;20032;-78
2023/12/02 00:51:44;;;;;;;42.17;24.83;;;-0.80;99.90;;;;;;2083465;28;20510;-78
2023/12/02 00:52:45;;;;;;;41.75;23.50;;;-0.80;99.90;;;;;;2083309;28;20029;-78
2023/12/02 00:53:45;;;;;;;40.83;23.58;;;-0.90;99.90;;;;;;2087165;28;20038;-78
2023/12/02 00:54:46;;;;;;;39.55;22.80;;;-0.80;99.90;;;;;;2091797;28;20032;-76
2023/12/02 00:55:47;;;;;;;43.05;24.45;;;-0.80;99.90;;;;;;2091904;28;20021;-78
2023/12/02 00:56:47;;;;;;;43.80;24.02;;;-0.80;99.90;;;;;;2090629;28;20033;-78
2023/12/02 00:57:48;;;;;;;41.67;23.80;;;-0.90;99.90;;;;;;2082963;28;20104;-79
2023/12/02 00:58:49;;;;;;;43.00;24.27;;;-0.90;99.90;;;;;;2066809;28;20087;-77
2023/12/02 00:59:49;;;;;;;43.28;24.52;;;-0.90;99.90;;;;;;2078889;28;20104;-77
2023/12/02 01:00:50;;;;;;;41.13;24.05;;;-0.90;99.90;;;;;;2093086;28;20027;-78
2023/12/02 01:01:50;;;;;;;40.80;23.20;;;-0.90;99.90;;;;;;2092826;28;20012;-79
2023/12/02 01:02:51;;;;;;;44.17;24.95;;;-0.90;99.90;;;;;;2090668;28;20099;-79
2023/12/02 01:03:52;;;;;;;41.70;24.20;;;-0.90;99.90;;;;;;2094566;28;20035;-78
2023/12/02 01:04:53;;;;;;;39.50;23.90;;;-0.80;99.90;;;;;;2085139;28;20483;-78
2023/12/02 01:05:53;;;;;;;42.10;24.10;;;-0.90;99.90;;;;;;2088775;28;20537;-77
2023/12/02 01:06:54;;;;;;;39.88;22.98;;;-0.90;99.90;;;;;;2091709;28;20557;-78
2023/12/02 01:07:54;;;;;;;38.65;23.15;;;-0.90;99.90;;;;;;2090723;28;20017;-78
2023/12/02 01:08:55;;;;;;;42.30;24.55;;;-0.90;99.90;;;;;;2088108;28;20086;-79
2023/12/02 01:09:55;;;;;;;41.75;23.98;;;-0.90;99.90;;;;;;2091637;28;20020;-79
2023/12/02 01:10:56;;;;;;;41.83;24.30;;;-0.90;99.90;;;;;;2086777;28;20251;-79
2023/12/02 01:11:57;;;;;;;41.55;25.02;;;-0.90;99.90;;;;;;2088107;28;20029;-78
2023/12/02 01:12:57;;;;;;;42.65;24.30;;;-0.90;99.90;;;;;;2091230;28;20417;-79
2023/12/02 01:13:58;;;;;;;43.25;25.33;;;-0.90;99.90;;;;;;2091557;28;20056;-78
2023/12/02 01:14:58;;;;;;;42.35;24.67;;;-0.80;99.90;;;;;;2087817;28;20020;-78
2023/12/02 01:15:59;;;;;;;43.97;25.08;;;-0.90;99.90;;;;;;2083093;28;20178;-78
2023/12/02 01:17:00;;;;;;;42.65;24.08;;;-0.90;99.90;;;;;;2078591;28;20030;-78
2023/12/02 01:18:00;;;;;;;41.42;24.42;;;-0.80;99.90;;;;;;2090841;28;20039;-78
2023/12/02 01:19:01;;;;;;;41.55;24.75;;;-0.80;99.90;;;;;;2093130;28;20151;-79
2023/12/02 01:20:01;;;;;;;44.92;25.25;;;-0.80;99.90;;;;;;2086798;28;20025;-79
2023/12/02 01:21:02;;;;;;;44.47;25.10;;;-0.80;99.90;;;;;;2086063;28;20033;-78
2023/12/02 01:22:03;;;;;;;42.35;25.38;;;-0.90;99.90;;;;;;2094171;28;20458;-78
2023/12/02 01:23:03;;;;;;;42.17;24.65;;;-0.90;99.90;;;;;;2089105;28;20104;-78
2023/12/02 01:24:04;;;;;;;46.58;25.52;;;-0.90;99.90;;;;;;2086987;28;20048;-78
2023/12/02 01:25:05;;;;;;;46.58;25.25;;;-0.90;99.90;;;;;;2094603;28;20932;-79
2023/12/02 01:26:06;;;;;;;45.15;25.27;;;-0.90;99.90;;;;;;2090090;28;20044;-78
2023/12/02 01:27:07;;;;;;;43.92;26.17;;;-1.00;99.90;;;;;;2090976;28;20029;-79
2023/12/02 01:28:07;;;;;;;45.33;27.13;;;-1.00;99.90;;;;;;2088891;28;20544;-77
2023/12/02 01:29:08;;;;;;;48.38;26.90;;;-1.00;99.90;;;;;;2084760;28;20083;-78
2023/12/02 01:30:09;;;;;;;46.20;25.98;;;-1.00;99.90;;;;;;2087639;28;20511;-77
2023/12/02 01:31:09;;;;;;;43.15;24.75;;;-1.00;99.90;;;;;;2087228;28;20541;-77
2023/12/02 01:32:10;;;;;;;45.03;26.52;;;-1.00;99.90;;;;;;2082408;28;20089;-77
2023/12/02 01:33:10;;;;;;;45.10;26.52;;;-1.00;99.90;;;;;;2090251;28;20055;-77
2023/12/02 01:34:11;;;;;;;44.35;25.90;;;-1.00;99.90;;;;;;2071628;28;20033;-77
2023/12/02 01:35:11;;;;;;;43.20;25.60;;;-1.00;99.90;;;;;;2086132;28;20035;-77
2023/12/02 01:36:13;;;;;;;44.65;26.27;;;-1.00;99.90;;;;;;2089828;28;20027;-78
2023/12/02 01:37:14;;;;;;;45.05;26.30;;;-0.90;99.90;;;;;;2083407;28;20449;-78
2023/12/02 01:38:14;;;;;;;42.25;25.13;;;-0.90;99.90;;;;;;2091721;28;20040;-78
2023/12/02 01:39:15;;;;;;;44.20;25.30;;;-0.80;99.90;;;;;;2091012;28;20031;-78
2023/12/02 01:40:16;;;;;;;45.33;26.33;;;-0.80;99.90;;;;;;2087106;28;20075;-78
2023/12/02 01:41:16;;;;;;;45.03;25.70;;;-0.80;99.90;;;;;;2090925;28;20596;-76
2023/12/02 01:42:18;;;;;;;45.90;26.40;;;-0.80;99.90;;;;;;2090564;28;20503;-77
2023/12/02 01:43:26;;;;;;;46.70;25.77;;;-0.90;99.90;;;;;;2095165;28;20375;-77
2023/12/02 01:44:27;;;;;;;46.05;26.02;;;-0.90;99.90;;;;;;2085701;28;20053;-76
2023/12/02 01:45:28;;;;;;;43.42;25.10;;;-0.80;99.90;;;;;;2089424;28;20295;-77
2023/12/02 01:46:29;;;;;;;44.42;25.40;;;-0.80;99.90;;;;;;2092973;28;20489;-78
2023/12/02 01:47:30;;;;;;;42.38;25.20;;;-0.80;99.90;;;;;;2086236;28;20252;-77
2023/12/02 01:48:33;;;;;;;42.63;24.52;;;-0.80;99.90;;;;;;2088959;28;20047;-78
2023/12/02 01:49:36;;;;;;;45.90;25.95;;;-0.80;99.90;;;;;;2086490;28;20475;-78
2023/12/02 01:50:36;;;;;;;46.10;26.15;;;-0.90;99.90;;;;;;2089922;28;20107;-77
2023/12/02 01:51:37;;;;;;;46.67;26.77;;;-0.90;99.90;;;;;;2086018;28;20029;-77
2023/12/02 01:52:37;;;;;;;46.88;27.15;;;-1.00;99.90;;;;;;2090375;28;20463;-68
2023/12/02 01:53:41;;;;;;;46.00;26.20;;;-1.00;99.90;;;;;;2084174;28;20112;-70
2023/12/02 01:54:42;;;;;;;45.17;26.27;;;-1.00;99.90;;;;;;2087240;28;20029;-68
2023/12/02 01:55:44;;;;;;;46.10;26.30;;;-0.90;99.90;;;;;;2091609;28;20048;-78
2023/12/02 01:56:45;;;;;;;47.58;27.02;;;-1.00;99.90;;;;;;2083106;28;20108;-72
2023/12/02 01:58:02;;;;;;;49.90;27.65;;;-1.10;99.90;;;;;;2083060;28;20426;-73
2023/12/02 01:59:03;;;;;;;51.25;26.75;;;-1.00;99.90;;;;;;2091133;28;20026;-72
2023/12/02 02:00:04;;;;;;;47.97;27.83;;;-1.10;99.90;;;;;;2087599;28;20045;-72
2023/12/02 02:01:12;;;;;;;48.90;28.38;;;-1.10;99.90;;;;;;2084523;28;20057;-72
2023/12/02 02:02:12;;;;;;;53.22;28.92;;;-1.10;99.90;;;;;;2091098;28;20025;-73
2023/12/02 02:03:13;;;;;;;45.63;26.80;;;-1.10;99.90;;;;;;2090346;28;20012;-73
2023/12/02 02:04:14;;;;;;;51.00;27.63;;;-1.00;99.90;;;;;;2091424;28;20029;-73
2023/12/02 02:05:14;;;;;;;47.85;26.92;;;-1.10;99.90;;;;;;2091466;28;20059;-73
2023/12/02 02:06:15;;;;;;;50.88;28.10;;;-1.00;99.90;;;;;;2091136;28;20055;-72
2023/12/02 02:07:17;;;;;;;47.80;27.60;;;-1.00;99.90;;;;;;2087087;28;20029;-72
2023/12/02 02:08:18;;;;;;;49.67;27.15;;;-1.10;99.90;;;;;;2083060;28;20041;-72
2023/12/02 02:09:18;;;;;;;48.83;27.30;;;-1.00;99.90;;;;;;2093560;28;20394;-72
2023/12/02 02:10:22;;;;;;;48.45;26.88;;;-1.00;99.90;;;;;;2083632;28;20116;-72
2023/12/02 02:11:23;;;;;;;47.85;26.13;;;-1.00;99.90;;;;;;2089599;28;20094;-73
2023/12/02 02:12:24;;;;;;;47.55;26.73;;;-0.90;99.90;;;;;;2090759;28;20489;-73
2023/12/02 02:13:25;;;;;;;42.58;25.55;;;-0.90;99.90;;;;;;2084621;28;20132;-73
2023/12/02 02:14:26;;;;;;;45.63;26.50;;;-0.90;99.90;;;;;;2088633;28;20037;-73
2023/12/02 02:15:26;;;;;;;44.75;26.08;;;-0.90;99.90;;;;;;2092092;28;20020;-73
2023/12/02 02:16:27;;;;;;;47.03;26.25;;;-0.90;99.90;;;;;;2091163;28;20210;-73
2023/12/02 02:17:27;;;;;;;44.70;25.15;;;-0.90;99.90;;;;;;2085604;28;20128;-73
2023/12/02 02:18:29;;;;;;;44.20;26.13;;;-0.90;99.90;;;;;;2088358;28;20029;-73
2023/12/02 02:19:31;;;;;;;44.20;26.05;;;-0.90;99.90;;;;;;2091000;28;20032;-73
2023/12/02 02:20:32;;;;;;;47.38;26.02;;;-1.00;99.90;;;;;;2086305;28;20017;-74
2023/12/02 02:21:32;;;;;;;42.70;25.35;;;-0.90;99.90;;;;;;2086634;28;20037;-74
2023/12/02 02:22:33;;;;;;;44.92;24.30;;;-0.90;99.90;;;;;;2093061;28;20572;-73
2023/12/02 02:23:33;;;;;;;44.88;26.08;;;-0.90;99.90;;;;;;2087163;28;20451;-73
2023/12/02 02:24:34;;;;;;;44.13;25.77;;;-0.90;99.90;;;;;;2085315;28;20111;-74
2023/12/02 02:25:34;;;;;;;46.00;26.30;;;-1.00;99.90;;;;;;2091074;28;20460;-74
2023/12/02 02:26:35;;;;;;;44.20;25.17;;;-1.00;99.90;;;;;;2082876;28;20040;-74
2023/12/02 02:27:35;;;;;;;43.13;25.02;;;-1.00;99.90;;;;;;2083063;28;20040;-73
2023/12/02 02:28:36;;;;;;;41.15;24.27;;;-1.00;99.90;;;;;;2091312;28;20335;-74
2023/12/02 02:29:36;;;;;;;43.72;25.38;;;-1.00;99.90;;;;;;2088057;28;20029;-73
2023/12/02 02:30:37;;;;;;;43.55;24.95;;;-1.00;99.90;;;;;;2085887;28;20028;-73
2023/12/02 02:31:38;;;;;;;42.80;24.63;;;-1.10;99.90;;;;;;2087121;28;20499;-73
2023/12/02 02:32:38;;;;;;;43.92;24.45;;;-1.00;99.90;;;;;;2084133;28;20029;-73
2023/12/02 02:33:39;;;;;;;43.35;24.90;;;-1.00;99.90;;;;;;2079595;28;20055;-73
2023/12/02 02:34:41;;;;;;;42.88;24.70;;;-1.00;99.90;;;;;;2080992;28;20421;-73
2023/12/02 02:35:42;;;;;;;42.95;23.88;;;-1.00;99.90;;;;;;2089689;28;20058;-73
2023/12/02 02:36:43;;;;;;;45.63;24.30;;;-1.00;99.90;;;;;;2085850;28;20118;-73
2023/12/02 02:37:43;;;;;;;40.70;23.48;;;-1.00;99.90;;;;;;2085524;28;20124;-73
2023/12/02 02:38:44;;;;;;;40.45;23.50;;;-0.90;99.90;;;;;;2090343;28;20177;-73
2023/12/02 02:39:44;;;;;;;43.28;24.83;;;-0.90;99.90;;;;;;2082733;28;20034;-72
2023/12/02 02:40:45;;;;;;;40.40;24.10;;;-0.90;99.90;;;;;;2089557;28;20109;-68
2023/12/02 02:41:46;;;;;;;42.60;25.27;;;-0.90;99.90;;;;;;2084955;28;20103;-68
2023/12/02 02:42:46;;;;;;;44.22;24.70;;;-0.90;99.90;;;;;;2091812;28;20029;-69
2023/12/02 02:43:47;;;;;;;40.70;23.30;;;-0.90;99.90;;;;;;2094247;28;20024;-69
2023/12/02 02:44:47;;;;;;;43.03;24.70;;;-0.90;99.90;;;;;;2083486;28;20025;-69
2023/12/02 02:45:49;;;;;;;43.38;23.95;;;-0.90;99.90;;;;;;2090999;28;20298;-69
2023/12/02 02:46:50;;;;;;;41.53;23.85;;;-0.90;99.90;;;;;;2090562;28;20024;-69
2023/12/02 02:47:51;;;;;;;43.53;25.08;;;-0.90;99.90;;;;;;2082839;28;20037;-69
2023/12/02 02:48:51;;;;;;;42.70;24.90;;;-0.90;99.90;;;;;;2089999;28;20078;-69
2023/12/02 02:49:52;;;;;;;44.13;25.20;;;-0.90;99.90;;;;;;2082977;28;20114;-69
2023/12/02 02:50:52;;;;;;;42.47;24.45;;;-0.90;99.90;;;;;;2087112;28;20447;-69
2023/12/02 02:51:53;;;;;;;44.22;25.58;;;-0.90;99.90;;;;;;2089583;28;20588;-68
2023/12/02 02:52:53;;;;;;;43.92;26.17;;;-0.90;99.90;;;;;;2089835;28;20086;-69
2023/12/02 02:53:54;;;;;;;44.65;25.08;;;-1.00;99.90;;;;;;2083397;28;20029;-69
2023/12/02 02:54:55;;;;;;;47.40;26.67;;;-1.00;99.90;;;;;;2089949;28;20521;-70
2023/12/02 02:55:55;;;;;;;46.63;26.90;;;-1.00;99.90;;;;;;2091049;28;20414;-69
2023/12/02 02:56:56;;;;;;;45.45;26.25;;;-1.00;99.90;;;;;;2083775;28;20033;-69
2023/12/02 02:57:56;;;;;;;48.17;26.98;;;-1.00;99.90;;;;;;2088705;28;20291;-69
2023/12/02 02:58:57;;;;;;;46.45;26.75;;;-1.00;99.90;;;;;;2091108;28;20103;-69
2023/12/02 02:59:57;;;;;;;46.97;26.95;;;-1.00;99.90;;;;;;2084618;28;20062;-67
2023/12/02 03:00:58;;;;;;;45.35;25.35;;;-1.00;99.90;;;;;;2089830;28;20119;-68
2023/12/02 03:01:58;;;;;;;48.28;27.17;;;-1.10;99.90;;;;;;2092818;28;20225;-68
2023/12/02 03:02:59;;;;;;;48.22;27.08;;;-1.10;99.90;;;;;;2093730;28;20029;-68
2023/12/02 03:04:00;;;;;;;45.90;25.70;;;-1.10;99.90;;;;;;2094668;28;20319;-68
2023/12/02 03:05:00;;;;;;;44.50;25.35;;;-1.10;99.90;;;;;;2094424;28;20486;-68
2023/12/02 03:06:01;;;;;;;45.33;25.58;;;-1.10;99.90;;;;;;2087383;28;20210;-68
2023/12/02 03:07:01;;;;;;;47.42;26.90;;;-1.10;99.90;;;;;;2092428;28;20021;-68
2023/12/02 03:08:02;;;;;;;46.88;26.33;;;-1.10;99.90;;;;;;2089115;28;20474;-68
2023/12/02 03:09:05;;;;;;;47.78;26.33;;;-1.10;99.90;;;;;;2091636;28;20042;-69
2023/12/02 03:10:07;;;;;;;50.42;27.85;;;-1.00;99.90;;;;;;2087545;28;20020;-68
2023/12/02 03:11:07;;;;;;;46.55;27.08;;;-1.00;99.90;;;;;;2089716;28;20095;-68
2023/12/02 03:12:09;;;;;;;51.78;28.60;;;-0.90;99.90;;;;;;2093558;28;20173;-67
2023/12/02 03:13:10;;;;;;;50.20;27.50;;;-1.00;99.90;;;;;;2089721;28;20057;-68
2023/12/02 03:14:11;;;;;;;46.40;26.92;;;-1.00;99.90;;;;;;2086963;28;20103;-68
2023/12/02 03:15:12;;;;;;;53.15;28.67;;;-1.00;99.90;;;;;;2085547;28;20131;-68
2023/12/02 03:16:13;;;;;;;53.90;28.05;;;-1.00;99.90;;;;;;2092554;28;20028;-68
2023/12/02 03:17:13;;;;;;;56.35;30.15;;;-0.90;99.90;;;;;;2090301;28;20020;-69
2023/12/02 03:18:14;;;;;;;51.47;27.95;;;-1.00;99.90;;;;;;2085817;28;20475;-69
2023/12/02 03:19:15;;;;;;;52.65;28.55;;;-1.00;99.90;;;;;;2083825;28;20529;-69
2023/12/02 03:20:17;;;;;;;49.97;27.67;;;-0.90;99.90;;;;;;2087013;28;20031;-69
2023/12/02 03:21:17;;;;;;;51.97;28.23;;;-0.90;99.90;;;;;;2091970;28;20051;-69
2023/12/02 03:22:18;;;;;;;51.45;28.25;;;-1.00;99.90;;;;;;2084872;28;20055;-69
2023/12/02 03:23:18;;;;;;;54.42;28.83;;;-1.00;99.90;;;;;;2084215;28;20051;-69
2023/12/02 03:24:19;;;;;;;51.35;29.05;;;-1.00;99.90;;;;;;2084235;28;20198;-69
2023/12/02 03:25:20;;;;;;;50.70;28.63;;;-1.00;99.90;;;;;;2088397;28;20329;-69
2023/12/02 03:26:23;;;;;;;53.33;29.05;;;-1.00;99.90;;;;;;2084073;28;20380;-69
2023/12/02 03:27:23;;;;;;;52.20;29.40;;;-1.00;99.90;;;;;;2092280;28;20032;-69
2023/12/02 03:28:24;;;;;;;51.92;29.60;;;-0.90;99.90;;;;;;2084481;28;20040;-69
2023/12/02 03:29:24;;;;;;;51.78;28.77;;;-1.00;99.90;;;;;;2093138;28;20025;-69
2023/12/02 03:30:25;;;;;;;51.55;29.48;;;-1.00;99.90;;;;;;2091737;28;20108;-78
2023/12/02 03:31:25;;;;;;;54.55;30.42;;;-0.90;99.90;;;;;;2088999;28;20089;-78
2023/12/02 03:32:26;;;;;;;52.85;29.80;;;-0.90;99.90;;;;;;2087314;28;20065;-79
2023/12/02 03:33:26;;;;;;;52.83;29.55;;;-0.80;99.90;;;;;;2085268;28;20032;-77
2023/12/02 03:34:27;;;;;;;53.83;29.83;;;-0.80;99.90;;;;;;2093304;28;20040;-79
2023/12/02 03:35:27;;;;;;;52.67;29.60;;;-0.90;99.90;;;;;;2094940;28;20040;-79
2023/12/02 03:36:28;;;;;;;53.50;29.48;;;-1.00;99.90;;;;;;2088516;28;20321;-78
2023/12/02 03:37:29;;;;;;;53.13;29.30;;;-1.10;99.90;;;;;;2086273;28;20033;-79
2023/12/02 03:38:29;;;;;;;56.00;30.65;;;-1.00;99.90;;;;;;2094709;28;20385;-78
2023/12/02 03:39:30;;;;;;;54.65;30.02;;;-1.10;99.90;;;;;;2096232;28;20028;-79
2023/12/02 03:40:30;;;;;;;54.00;30.25;;;-1.10;99.90;;;;;;2093574;28;20033;-69
2023/12/02 03:41:32;;;;;;;56.58;31.20;;;-1.10;99.90;;;;;;2089563;28;20088;-69
2023/12/02 03:42:32;;;;;;;54.55;29.70;;;-1.00;99.90;;;;;;2085290;28;20033;-69
2023/12/02 03:43:33;;;;;;;50.63;27.95;;;-1.00;99.90;;;;;;2089435;28;20432;-69
2023/12/02 03:44:34;;;;;;;48.88;27.63;;;-1.00;99.90;;;;;;2088711;28;20272;-69
2023/12/02 03:45:35;;;;;;;52.85;29.48;;;-1.00;99.90;;;;;;2093957;28;20058;-70
2023/12/02 03:46:36;;;;;;;50.97;28.85;;;-1.00;99.90;;;;;;2087677;28;20897;-69
2023/12/02 03:47:37;;;;;;;51.90;28.80;;;-1.00;99.90;;;;;;2091903;28;20040;-69
2023/12/02 03:48:37;;;;;;;51.95;29.15;;;-1.10;99.90;;;;;;2080562;28;20040;-70
2023/12/02 03:49:38;;;;;;;49.50;28.23;;;-1.10;99.90;;;;;;2089950;28;20028;-70
2023/12/02 03:50:38;;;;;;;48.97;27.85;;;-1.10;99.90;;;;;;2092493;28;20153;-69
2023/12/02 03:51:39;;;;;;;52.50;29.08;;;-1.00;99.90;;;;;;2085560;28;20171;-70
2023/12/02 03:52:39;;;;;;;47.13;27.10;;;-1.00;99.90;;;;;;2092068;28;20035;-69
2023/12/02 03:53:40;;;;;;;51.60;27.15;;;-0.90;99.90;;;;;;2089926;28;20288;-69
2023/12/02 03:54:40;;;;;;;51.65;28.15;;;-0.90;99.90;;;;;;2086221;28;20059;-70
2023/12/02 03:55:41;;;;;;;50.42;27.48;;;-0.90;99.90;;;;;;2092227;28;20075;-69
2023/12/02 03:56:42;;;;;;;49.30;28.33;;;-0.90;99.90;;;;;;2089264;28;20067;-70
2023/12/02 03:57:42;;;;;;;50.33;27.48;;;-0.90;99.90;;;;;;2086444;28;20033;-70
2023/12/02 03:58:43;;;;;;;49.35;27.63;;;-1.00;99.90;;;;;;2083882;28;20017;-70
2023/12/02 03:59:43;;;;;;;50.50;27.85;;;-1.00;99.90;;;;;;2093953;28;20458;-70
2023/12/02 04:00:44;;;;;;;53.65;27.90;;;-1.10;99.90;;;;;;2085955;28;20390;-70
2023/12/02 04:01:45;;;;;;;52.67;28.27;;;-1.10;99.90;;;;;;2091822;28;20086;-69
2023/12/02 04:02:45;;;;;;;50.90;28.52;;;-1.10;99.90;;;;;;2094569;28;20350;-69
2023/12/02 04:03:46;;;;;;;50.03;27.58;;;-1.20;99.90;;;;;;2085441;28;20115;-69
2023/12/02 04:04:46;;;;;;;52.20;28.05;;;-1.20;99.90;;;;;;2092034;28;20040;-69
2023/12/02 04:05:47;;;;;;;50.88;28.17;;;-1.10;99.90;;;;;;2090985;28;20122;-69
2023/12/02 04:06:48;;;;;;;52.88;29.25;;;-1.10;99.90;;;;;;2091780;28;20108;-70
2023/12/02 04:07:49;;;;;;;55.28;29.90;;;-1.10;99.90;;;;;;2090230;28;20041;-69
2023/12/02 04:08:49;;;;;;;59.08;31.60;;;-1.10;99.90;;;;;;2092381;28;20038;-69
2023/12/02 04:09:49;;;;;;;57.97;30.73;;;-1.10;99.90;;;;;;2083818;28;20017;-69
2023/12/02 04:10:50;;;;;;;58.35;31.77;;;-1.10;99.90;;;;;;2091632;28;20395;-70
2023/12/02 04:11:51;;;;;;;60.38;32.53;;;-1.10;99.90;;;;;;2092012;28;20068;-69
2023/12/02 04:12:51;;;;;;;61.17;32.40;;;-1.10;99.90;;;;;;2091308;28;20024;-70
2023/12/02 04:13:52;;;;;;;60.60;33.38;;;-1.10;99.90;;;;;;2090955;28;20467;-69
2023/12/02 04:14:52;;;;;;;60.22;32.80;;;-1.20;99.90;;;;;;2083344;28;20494;-70
2023/12/02 04:15:53;;;;;;;66.50;33.58;;;-1.20;99.90;;;;;;2090939;28;20106;-69
2023/12/02 04:16:53;;;;;;;64.82;33.67;;;-1.20;99.90;;;;;;2091139;28;20609;-69
2023/12/02 04:17:54;;;;;;;67.32;35.47;;;-1.30;99.90;;;;;;2087178;28;20669;-69
2023/12/02 04:18:54;;;;;;;65.35;35.45;;;-1.30;99.90;;;;;;2091002;28;20043;-69
2023/12/02 04:19:55;;;;;;;69.13;34.90;;;-1.30;99.90;;;;;;2091725;28;20028;-69
2023/12/02 04:20:55;;;;;;;64.20;35.15;;;-1.30;99.90;;;;;;2084012;28;20497;-69
2023/12/02 04:21:56;;;;;;;64.70;34.95;;;-1.30;99.90;;;;;;2091303;28;20417;-69
2023/12/02 04:22:57;;;;;;;68.38;36.05;;;-1.30;99.90;;;;;;2091716;28;20111;-69
2023/12/02 04:23:58;;;;;;;65.00;35.22;;;-1.30;99.90;;;;;;2084772;28;20028;-69
2023/12/02 04:24:58;;;;;;;64.97;33.42;;;-1.20;99.90;;;;;;2093182;28;20029;-69
2023/12/02 04:25:59;;;;;;;64.28;33.33;;;-1.30;99.90;;;;;;2090979;28;20055;-69
2023/12/02 04:27:00;;;;;;;64.35;34.20;;;-1.20;99.90;;;;;;2085129;28;20086;-69
2023/12/02 04:28:01;;;;;;;67.93;35.35;;;-1.20;99.90;;;;;;2089869;28;20032;-69
2023/12/02 04:29:01;;;;;;;67.28;35.20;;;-1.30;99.90;;;;;;2091478;28;20562;-69
2023/12/02 04:30:04;;;;;;;66.57;34.75;;;-1.30;99.90;;;;;;2085224;28;20068;-68
2023/12/02 04:31:04;;;;;;;66.35;35.45;;;-1.30;99.90;;;;;;2092668;28;20122;-69
2023/12/02 04:32:05;;;;;;;63.85;33.17;;;-1.30;99.90;;;;;;2089348;28;20039;-69
2023/12/02 04:33:05;;;;;;;64.72;34.60;;;-1.30;99.90;;;;;;2085743;28;20164;-69
2023/12/02 04:34:06;;;;;;;67.35;35.22;;;-1.40;99.90;;;;;;2087759;28;20033;-69
2023/12/02 04:35:08;;;;;;;67.47;33.40;;;-1.40;99.90;;;;;;2093674;28;20035;-69
2023/12/02 04:36:09;;;;;;;60.65;32.75;;;-1.40;99.90;;;;;;2093690;28;20032;-69
2023/12/02 04:37:10;;;;;;;63.90;33.70;;;-1.30;99.90;;;;;;2089567;28;20029;-69
2023/12/02 04:38:11;;;;;;;64.38;33.75;;;-1.30;99.90;;;;;;2086983;28;20120;-69
2023/12/02 04:39:12;;;;;;;61.38;32.85;;;-1.30;99.90;;;;;;2090757;28;20068;-70
2023/12/02 04:40:13;;;;;;;62.92;32.90;;;-1.30;99.90;;;;;;2087855;28;20044;-69
2023/12/02 04:41:14;;;;;;;62.63;33.88;;;-1.30;99.90;;;;;;2086240;28;20502;-69
2023/12/02 04:42:14;;;;;;;61.30;32.40;;;-1.20;99.90;;;;;;2093403;28;20111;-68
2023/12/02 04:43:15;;;;;;;62.60;32.72;;;-1.20;99.90;;;;;;2094457;28;20390;-69
2023/12/02 04:44:15;;;;;;;59.88;32.22;;;-1.20;99.90;;;;;;2085999;28;20028;-69
2023/12/02 04:45:16;;;;;;;60.65;32.25;;;-1.20;99.90;;;;;;2090714;28;20079;-69
2023/12/02 04:46:17;;;;;;;61.55;32.33;;;-1.20;99.90;;;;;;2088534;28;20023;-69
2023/12/02 04:47:17;;;;;;;63.78;33.20;;;-1.30;99.90;;;;;;2085526;28;20446;-69
2023/12/02 04:48:18;;;;;;;60.30;32.65;;;-1.30;99.90;;;;;;2091797;28;20336;-69
2023/12/02 04:49:19;;;;;;;56.67;31.42;;;-1.30;99.90;;;;;;2089976;28;20062;-69
2023/12/02 04:50:19;;;;;;;58.83;31.50;;;-1.20;99.90;;;;;;2092445;28;20047;-69
2023/12/02 04:51:20;;;;;;;58.17;32.72;;;-1.20;99.90;;;;;;2092156;28;20036;-69
2023/12/02 04:52:20;;;;;;;59.22;32.17;;;-1.20;99.90;;;;;;2089716;28;20043;-69
2023/12/02 04:53:21;;;;;;;55.83;31.50;;;-1.20;99.90;;;;;;2078048;28;20033;-69
2023/12/02 04:54:21;;;;;;;54.20;29.95;;;-1.20;99.90;;;;;;2082355;28;20159;-69
2023/12/02 04:55:22;;;;;;;62.10;32.42;;;-1.10;99.90;;;;;;2077335;28;20056;-69
2023/12/02 04:56:22;;;;;;;57.40;31.30;;;-1.20;99.90;;;;;;2074914;28;20036;-69
2023/12/02 04:57:23;;;;;;;57.85;31.63;;;-1.20;99.90;;;;;;2090762;28;20056;-69
2023/12/02 04:58:23;;;;;;;59.58;31.95;;;-1.30;99.90;;;;;;2091291;28;20037;-69
2023/12/02 04:59:24;;;;;;;60.78;31.40;;;-1.30;99.90;;;;;;2091137;28;20060;-67
2023/12/02 05:00:25;;;;;;;58.08;31.10;;;-1.30;99.90;;;;;;2073498;28;20526;-69
2023/12/02 05:01:25;;;;;;;58.65;31.10;;;-1.40;99.90;;;;;;2082734;28;20048;-68
2023/12/02 05:02:26;;;;;;;58.70;31.20;;;-1.40;99.90;;;;;;2091380;28;20063;-68
2023/12/02 05:03:27;;;;;;;58.50;30.52;;;-1.50;99.90;;;;;;2083506;28;20475;-68
2023/12/02 05:04:27;;;;;;;59.72;30.50;;;-1.50;99.90;;;;;;2091303;28;20657;-68
2023/12/02 05:05:28;;;;;;;62.00;31.50;;;-1.60;99.90;;;;;;2090616;28;20115;-70
2023/12/02 05:06:28;;;;;;;60.30;31.00;;;-1.60;99.90;;;;;;2074859;28;20037;-69
2023/12/02 05:07:29;;;;;;;58.40;30.95;;;-1.60;99.90;;;;;;2090382;28;20063;-67
2023/12/02 05:08:29;;;;;;;57.35;30.27;;;-1.50;99.90;;;;;;2091313;28;20024;-68